createdAt,value
2017-03-13T00:00:42.330Z,1002.46
2017-03-13T00:01:53.124Z,1002.5
2017-03-13T00:03:03.516Z,1002.51
2017-03-13T00:04:13.925Z,1002.49
2017-03-13T00:05:24.710Z,1002.53
2017-03-13T00:06:35.108Z,1002.53
2017-03-13T00:07:45.527Z,1002.55
2017-03-13T00:08:55.923Z,1002.54
2017-03-13T00:10:05.916Z,1002.53
2017-03-13T00:11:16.295Z,1002.54
2017-03-13T00:12:26.694Z,1002.54
2017-03-13T00:13:37.481Z,1002.59
2017-03-13T00:14:47.884Z,1002.57
2017-03-13T00:15:57.915Z,1002.56
2017-03-13T00:17:08.705Z,1002.59
2017-03-13T00:18:19.086Z,1002.53
2017-03-13T00:19:29.910Z,1002.53
2017-03-13T00:20:40.734Z,1002.51
2017-03-13T00:21:51.119Z,1002.53
2017-03-13T00:23:01.920Z,1002.54
2017-03-13T00:24:12.321Z,1002.48
2017-03-13T00:25:23.155Z,1002.51
2017-03-13T00:26:33.936Z,1002.48
2017-03-13T00:27:44.751Z,1002.49
2017-03-13T00:28:54.370Z,1002.46
2017-03-13T00:30:05.146Z,1002.49
2017-03-13T00:31:15.921Z,1002.44
2017-03-13T00:32:26.735Z,1002.46
2017-03-13T00:33:37.537Z,1002.46
2017-03-13T00:34:47.513Z,1002.45
2017-03-13T00:35:57.904Z,1002.46
2017-03-13T00:37:08.729Z,1002.46
2017-03-13T00:38:19.141Z,1002.51
2017-03-13T00:39:29.540Z,1002.49
2017-03-13T00:40:39.932Z,1002.56
2017-03-13T00:41:50.353Z,1002.51
2017-03-13T00:43:00.728Z,1002.55
2017-03-13T00:44:11.531Z,1002.53
2017-03-13T00:45:22.298Z,1002.54
2017-03-13T00:46:33.081Z,1002.52
2017-03-13T00:47:43.456Z,1002.57
2017-03-13T00:48:54.267Z,1002.57
2017-03-13T00:50:05.098Z,1002.53
2017-03-13T00:51:15.520Z,1002.57
2017-03-13T00:52:25.907Z,1002.51
2017-03-13T00:53:36.716Z,1002.55
2017-03-13T00:54:47.559Z,1002.54
2017-03-13T00:55:58.398Z,1002.52
2017-03-13T00:57:08.808Z,1002.53
2017-03-13T00:58:19.601Z,1002.53
2017-03-13T00:59:30.425Z,1002.53
2017-03-13T01:00:41.226Z,1002.53
2017-03-13T01:01:52.035Z,1002.55
2017-03-13T01:03:02.418Z,1002.54
2017-03-13T01:04:12.801Z,1002.52
2017-03-13T01:05:23.572Z,1002.49
2017-03-13T01:06:33.971Z,1002.47
2017-03-13T01:07:44.354Z,1002.47
2017-03-13T01:08:55.173Z,1002.49
2017-03-13T01:10:05.961Z,1002.49
2017-03-13T01:11:16.387Z,1002.53
2017-03-13T01:12:27.199Z,1002.52
2017-03-13T01:13:37.200Z,1002.5
2017-03-13T01:14:47.989Z,1002.53
2017-03-13T01:15:58.397Z,1002.53
2017-03-13T01:17:08.819Z,1002.48
2017-03-13T01:18:19.609Z,1002.49
2017-03-13T01:19:30.033Z,1002.49
2017-03-13T01:20:40.849Z,1002.44
2017-03-13T01:21:50.861Z,1002.44
2017-03-13T01:23:01.262Z,1002.45
2017-03-13T01:24:12.051Z,1002.47
2017-03-13T01:25:23.069Z,1002.43
2017-03-13T01:26:33.503Z,1002.46
2017-03-13T01:27:43.917Z,1002.48
2017-03-13T01:28:54.729Z,1002.49
2017-03-13T01:30:05.125Z,1002.51
2017-03-13T01:31:15.529Z,1002.52
2017-03-13T01:32:26.335Z,1002.52
2017-03-13T01:33:37.128Z,1002.51
2017-03-13T01:34:47.929Z,1002.48
2017-03-13T01:35:58.720Z,1002.49
2017-03-13T01:37:09.508Z,1002.48
2017-03-13T01:38:20.285Z,1002.44
2017-03-13T01:39:30.677Z,1002.45
2017-03-13T01:40:41.454Z,1002.44
2017-03-13T01:41:52.251Z,1002.48
2017-03-13T01:43:03.050Z,1002.46
2017-03-13T01:44:13.859Z,1002.46
2017-03-13T01:45:24.652Z,1002.48
2017-03-13T01:46:35.434Z,1002.47
2017-03-13T01:47:46.233Z,1002.45
2017-03-13T01:48:57.027Z,1002.48
2017-03-13T01:50:07.443Z,1002.53
2017-03-13T01:51:17.841Z,1002.55
2017-03-13T01:52:28.639Z,1002.52
2017-03-13T01:53:39.419Z,1002.5
2017-03-13T01:54:50.204Z,1002.58
2017-03-13T01:56:01.015Z,1002.59
2017-03-13T01:57:11.043Z,1002.52
2017-03-13T01:58:21.854Z,1002.56
2017-03-13T01:59:32.226Z,1002.61
2017-03-13T02:00:42.641Z,1002.64
2017-03-13T02:01:53.425Z,1002.59
2017-03-13T02:03:03.837Z,1002.63
2017-03-13T02:04:14.226Z,1002.6
2017-03-13T02:05:25.010Z,1002.64
2017-03-13T02:06:35.793Z,1002.6
2017-03-13T02:07:46.651Z,1002.64
2017-03-13T02:08:57.446Z,1002.65
2017-03-13T02:10:07.846Z,1002.65
2017-03-13T02:11:18.642Z,1002.61
2017-03-13T02:12:29.095Z,1002.66
2017-03-13T02:13:39.901Z,1002.67
2017-03-13T02:14:50.673Z,1002.64
2017-03-13T02:16:01.494Z,1002.66
2017-03-13T02:17:12.293Z,1002.72
2017-03-13T02:18:23.093Z,1002.68
2017-03-13T02:19:33.085Z,1002.7
2017-03-13T02:20:43.874Z,1002.67
2017-03-13T02:21:54.674Z,1002.72
2017-03-13T02:23:05.461Z,1002.76
2017-03-13T02:24:15.878Z,1002.75
2017-03-13T02:25:26.681Z,1002.78
2017-03-13T02:26:37.092Z,1002.81
2017-03-13T02:27:47.891Z,1002.77
2017-03-13T02:28:58.706Z,1002.79
2017-03-13T02:30:09.120Z,1002.8
2017-03-13T02:31:19.518Z,1002.77
2017-03-13T02:32:29.114Z,1002.82
2017-03-13T02:33:39.916Z,1002.81
2017-03-13T02:34:50.312Z,1002.85
2017-03-13T02:36:01.160Z,1002.82
2017-03-13T02:37:11.926Z,1002.84
2017-03-13T02:38:22.719Z,1002.82
2017-03-13T02:39:33.108Z,1002.85
2017-03-13T02:40:43.492Z,1002.85
2017-03-13T02:41:53.877Z,1002.86
2017-03-13T02:43:04.676Z,1002.89
2017-03-13T02:44:15.441Z,1002.9
2017-03-13T02:45:26.272Z,1002.88
2017-03-13T02:46:37.071Z,1002.88
2017-03-13T02:47:47.842Z,1002.89
2017-03-13T02:48:58.648Z,1002.87
2017-03-13T02:50:09.031Z,1002.91
2017-03-13T02:51:19.829Z,1002.92
2017-03-13T02:52:30.616Z,1002.96
2017-03-13T02:53:41.016Z,1002.94
2017-03-13T02:54:51.808Z,1002.96
2017-03-13T02:56:02.595Z,1002.98
2017-03-13T02:57:13.414Z,1002.98
2017-03-13T02:58:24.213Z,1003.01
2017-03-13T02:59:35.015Z,1003.01
2017-03-13T03:00:45.815Z,1003
2017-03-13T03:31:55.313Z,1003.3
2017-03-13T03:33:06.098Z,1003.31
2017-03-13T03:34:16.465Z,1003.28
2017-03-13T03:35:26.856Z,1003.27
2017-03-13T03:36:37.231Z,1003.24
2017-03-13T03:37:48.013Z,1003.27
2017-03-13T03:38:58.383Z,1003.29
2017-03-13T03:40:09.178Z,1003.29
2017-03-13T03:41:19.150Z,1003.28
2017-03-13T03:42:29.936Z,1003.3
2017-03-13T03:43:40.742Z,1003.28
2017-03-13T03:44:51.515Z,1003.34
2017-03-13T03:46:01.502Z,1003.33
2017-03-13T03:47:12.304Z,1003.35
2017-03-13T03:48:21.509Z,1003.35
2017-03-13T03:49:32.289Z,1003.39
2017-03-13T03:50:43.109Z,1003.39
2017-03-13T03:51:53.908Z,1003.34
2017-03-13T03:53:03.908Z,1003.36
2017-03-13T03:54:14.690Z,1003.37
2017-03-13T03:55:25.472Z,1003.4
2017-03-13T03:56:36.278Z,1003.37
2017-03-13T03:57:47.063Z,1003.41
2017-03-13T03:58:57.848Z,1003.44
2017-03-13T04:00:08.240Z,1003.44
2017-03-13T04:01:19.016Z,1003.46
2017-03-13T04:02:29.787Z,1003.46
2017-03-13T04:03:40.597Z,1003.5
2017-03-13T04:04:51.011Z,1003.5
2017-03-13T04:06:01.446Z,1003.5
2017-03-13T04:07:11.825Z,1003.55
2017-03-13T04:08:22.645Z,1003.49
2017-03-13T04:09:33.053Z,1003.54
2017-03-13T04:10:43.490Z,1003.57
2017-03-13T04:11:54.265Z,1003.56
2017-03-13T04:13:04.668Z,1003.62
2017-03-13T04:14:15.498Z,1003.6
2017-03-13T04:15:25.904Z,1003.62
2017-03-13T04:16:36.679Z,1003.63
2017-03-13T04:17:46.669Z,1003.59
2017-03-13T04:18:57.444Z,1003.64
2017-03-13T04:20:08.241Z,1003.64
2017-03-13T04:21:19.036Z,1003.64
2017-03-13T04:22:29.845Z,1003.67
2017-03-13T04:23:40.635Z,1003.68
2017-03-13T04:24:51.029Z,1003.67
2017-03-13T04:26:01.419Z,1003.68
2017-03-13T04:27:12.202Z,1003.69
2017-03-13T04:28:22.198Z,1003.7
2017-03-13T04:29:33.036Z,1003.68
2017-03-13T04:30:43.823Z,1003.69
2017-03-13T04:31:54.610Z,1003.69
2017-03-13T04:33:05.382Z,1003.73
2017-03-13T04:34:16.166Z,1003.76
2017-03-13T04:35:26.966Z,1003.77
2017-03-13T04:36:37.747Z,1003.77
2017-03-13T04:37:48.536Z,1003.76
2017-03-13T04:38:59.323Z,1003.78
2017-03-13T04:40:10.131Z,1003.8
2017-03-13T04:41:20.933Z,1003.82
2017-03-13T04:42:31.765Z,1003.8
2017-03-13T04:43:42.568Z,1003.83
2017-03-13T04:44:53.353Z,1003.8
2017-03-13T04:46:04.153Z,1003.82
2017-03-13T04:47:14.555Z,1003.85
2017-03-13T04:48:25.323Z,1003.85
2017-03-13T04:49:36.115Z,1003.83
2017-03-13T04:50:46.482Z,1003.84
2017-03-13T04:51:57.278Z,1003.88
2017-03-13T04:53:08.082Z,1003.91
2017-03-13T04:54:18.876Z,1003.87
2017-03-13T04:55:29.718Z,1003.87
2017-03-13T04:56:40.501Z,1003.9
2017-03-13T04:57:51.319Z,1003.9
2017-03-13T04:59:02.109Z,1003.94
2017-03-13T05:00:12.911Z,1003.93
2017-03-13T05:01:23.682Z,1003.89
2017-03-13T05:02:34.127Z,1003.92
2017-03-13T05:03:44.914Z,1003.93
2017-03-13T05:04:55.577Z,1003.99
2017-03-13T05:06:06.383Z,1003.97
2017-03-13T05:07:16.799Z,1004
2017-03-13T05:08:27.175Z,1004.05
2017-03-13T05:09:37.582Z,1004.01
2017-03-13T05:10:47.601Z,1004.11
2017-03-13T05:11:57.597Z,1004.07
2017-03-13T05:13:08.370Z,1004.07
2017-03-13T05:14:18.362Z,1004.11
2017-03-13T05:15:29.143Z,1004.09
2017-03-13T05:16:39.141Z,1004.18
2017-03-13T05:17:49.935Z,1004.16
2017-03-13T05:19:00.723Z,1004.19
2017-03-13T05:20:11.509Z,1004.21
2017-03-13T05:21:22.301Z,1004.19
2017-03-13T05:22:32.298Z,1004.19
2017-03-13T05:23:42.729Z,1004.18
2017-03-13T05:24:53.117Z,1004.24
2017-03-13T05:26:03.508Z,1004.25
2017-03-13T05:27:14.291Z,1004.29
2017-03-13T05:28:25.111Z,1004.28
2017-03-13T05:29:35.500Z,1004.35
2017-03-13T05:30:45.899Z,1004.34
2017-03-13T05:31:56.689Z,1004.38
2017-03-13T05:33:06.683Z,1004.35
2017-03-13T05:34:16.688Z,1004.37
2017-03-13T05:35:27.465Z,1004.39
2017-03-13T05:36:38.250Z,1004.46
2017-03-13T05:37:48.659Z,1004.47
2017-03-13T05:38:59.479Z,1004.5
2017-03-13T05:40:09.889Z,1004.5
2017-03-13T05:41:20.695Z,1004.55
2017-03-13T05:42:31.493Z,1004.62
2017-03-13T05:43:42.313Z,1004.62
2017-03-13T05:44:53.099Z,1004.61
2017-03-13T05:46:03.503Z,1004.63
2017-03-13T05:47:14.356Z,1004.68
2017-03-13T05:48:24.776Z,1004.68
2017-03-13T05:49:35.569Z,1004.68
2017-03-13T05:50:46.356Z,1004.71
2017-03-13T05:51:57.144Z,1004.67
2017-03-13T05:53:07.927Z,1004.69
2017-03-13T05:54:18.709Z,1004.68
2017-03-13T05:55:29.523Z,1004.71
2017-03-13T05:56:40.319Z,1004.75
2017-03-13T05:57:51.119Z,1004.74
2017-03-13T05:59:00.746Z,1004.76
2017-03-13T06:00:11.158Z,1004.73
2017-03-13T06:01:21.955Z,1004.77
2017-03-13T06:02:31.994Z,1004.78
2017-03-13T06:03:42.418Z,1004.77
2017-03-13T06:04:52.835Z,1004.8
2017-03-13T06:06:03.259Z,1004.81
2017-03-13T06:07:14.051Z,1004.83
2017-03-13T06:08:24.828Z,1004.83
2017-03-13T06:09:35.261Z,1004.87
2017-03-13T06:10:45.628Z,1004.89
2017-03-13T06:11:56.446Z,1004.91
2017-03-13T06:13:07.240Z,1004.93
2017-03-13T06:14:18.022Z,1004.97
2017-03-13T06:15:28.398Z,1004.92
2017-03-13T06:16:38.793Z,1005
2017-03-13T06:17:49.565Z,1005.01
2017-03-13T06:19:00.385Z,1005
2017-03-13T06:20:11.246Z,1005.07
2017-03-13T06:21:22.031Z,1005.1
2017-03-13T06:22:32.448Z,1005.08
2017-03-13T06:23:42.841Z,1005.08
2017-03-13T06:24:53.238Z,1005.1
2017-03-13T06:26:04.079Z,1005.11
2017-03-13T06:27:14.868Z,1005.09
2017-03-13T06:28:25.686Z,1005.12
2017-03-13T06:29:36.069Z,1005.15
2017-03-13T06:30:46.473Z,1005.18
2017-03-13T06:31:57.309Z,1005.21
2017-03-13T06:33:08.121Z,1005.22
2017-03-13T06:34:18.920Z,1005.27
2017-03-13T06:35:29.745Z,1005.25
2017-03-13T06:36:40.172Z,1005.28
2017-03-13T06:37:50.993Z,1005.28
2017-03-13T06:39:01.796Z,1005.34
2017-03-13T06:40:12.605Z,1005.34
2017-03-13T06:41:22.995Z,1005.37
2017-03-13T06:42:33.799Z,1005.39
2017-03-13T06:43:43.801Z,1005.43
2017-03-13T06:44:54.621Z,1005.44
2017-03-13T06:46:05.419Z,1005.41
2017-03-13T06:47:16.214Z,1005.5
2017-03-13T06:48:27.069Z,1005.46
2017-03-13T06:49:37.869Z,1005.52
2017-03-13T06:50:48.664Z,1005.54
2017-03-13T06:51:59.440Z,1005.53
2017-03-13T06:53:10.262Z,1005.58
2017-03-13T06:54:20.662Z,1005.6
2017-03-13T06:55:30.683Z,1005.64
2017-03-13T06:56:41.106Z,1005.61
2017-03-13T06:57:51.533Z,1005.62
2017-03-13T06:59:02.344Z,1005.63
2017-03-13T07:00:13.142Z,1005.71
2017-03-13T07:01:23.531Z,1005.7
2017-03-13T07:02:34.352Z,1005.74
2017-03-13T07:03:44.756Z,1005.75
2017-03-13T07:04:55.552Z,1005.79
2017-03-13T07:06:06.352Z,1005.77
2017-03-13T07:07:17.046Z,1005.79
2017-03-13T07:08:27.902Z,1005.84
2017-03-13T07:09:38.297Z,1005.82
2017-03-13T07:10:49.104Z,1005.82
2017-03-13T07:11:59.509Z,1005.84
2017-03-13T07:13:10.309Z,1005.91
2017-03-13T07:14:21.113Z,1005.89
2017-03-13T07:15:31.539Z,1005.89
2017-03-13T07:16:41.550Z,1005.96
2017-03-13T07:17:52.347Z,1005.93
2017-03-13T07:19:03.161Z,1005.96
2017-03-13T07:20:13.945Z,1006
2017-03-13T07:21:24.751Z,1005.99
2017-03-13T07:22:35.155Z,1005.99
2017-03-13T07:23:45.934Z,1006
2017-03-13T07:24:56.967Z,1006.01
2017-03-13T07:26:07.760Z,1006.04
2017-03-13T07:27:18.563Z,1006.05
2017-03-13T07:28:29.391Z,1006.05
2017-03-13T07:29:40.212Z,1006.03
2017-03-13T07:30:50.986Z,1006.09
2017-03-13T07:33:25.856Z,1006.06
2017-03-13T07:34:36.632Z,1006.09
2017-03-13T07:35:46.643Z,1006.11
2017-03-13T07:36:57.032Z,1006.14
2017-03-13T07:38:07.431Z,1006.13
2017-03-13T07:39:18.217Z,1006.12
2017-03-13T07:40:28.241Z,1006.16
2017-03-13T07:41:39.051Z,1006.15
2017-03-13T07:42:49.848Z,1006.21
2017-03-13T07:44:00.623Z,1006.14
2017-03-13T07:45:11.420Z,1006.16
2017-03-13T07:46:21.446Z,1006.18
2017-03-13T07:47:31.457Z,1006.17
2017-03-13T07:48:42.236Z,1006.17
2017-03-13T07:49:53.020Z,1006.21
2017-03-13T07:51:03.436Z,1006.21
2017-03-13T07:52:14.209Z,1006.32
2017-03-13T07:53:23.798Z,1006.31
2017-03-13T07:54:34.580Z,1006.3
2017-03-13T07:55:45.373Z,1006.28
2017-03-13T07:56:56.173Z,1006.38
2017-03-13T07:58:06.589Z,1006.33
2017-03-13T07:59:17.386Z,1006.41
2017-03-13T08:00:28.183Z,1006.4
2017-03-13T08:01:38.994Z,1006.43
2017-03-13T08:02:49.786Z,1006.47
2017-03-13T08:04:00.582Z,1006.45
2017-03-13T08:05:11.384Z,1006.44
2017-03-13T08:06:21.788Z,1006.53
2017-03-13T08:07:32.190Z,1006.51
2017-03-13T08:08:42.587Z,1006.53
2017-03-13T08:09:53.401Z,1006.5
2017-03-13T08:11:04.211Z,1006.5
2017-03-13T08:12:14.991Z,1006.55
2017-03-13T08:13:25.831Z,1006.57
2017-03-13T08:14:36.243Z,1006.58
2017-03-13T08:15:47.039Z,1006.58
2017-03-13T08:16:57.808Z,1006.49
2017-03-13T08:18:08.595Z,1006.57
2017-03-13T08:19:19.381Z,1006.54
2017-03-13T08:20:29.821Z,1006.55
2017-03-13T08:21:40.659Z,1006.56
2017-03-13T08:22:51.092Z,1006.5
2017-03-13T08:24:01.501Z,1006.57
2017-03-13T08:25:12.305Z,1006.63
2017-03-13T08:26:23.102Z,1006.59
2017-03-13T08:27:33.491Z,1006.59
2017-03-13T08:28:43.871Z,1006.64
2017-03-13T08:29:54.663Z,1006.66
2017-03-13T08:31:05.461Z,1006.68
2017-03-13T08:32:15.854Z,1006.71
2017-03-13T08:33:26.646Z,1006.72
2017-03-13T08:34:37.044Z,1006.65
2017-03-13T08:35:47.829Z,1006.7
2017-03-13T08:36:58.617Z,1006.67
2017-03-13T08:38:09.409Z,1006.72
2017-03-13T08:39:19.815Z,1006.71
2017-03-13T08:40:30.602Z,1006.73
2017-03-13T08:41:41.404Z,1006.7
2017-03-13T08:42:51.792Z,1006.73
2017-03-13T08:44:02.607Z,1006.73
2017-03-13T08:45:13.415Z,1006.67
2017-03-13T08:46:24.197Z,1006.71
2017-03-13T08:47:34.982Z,1006.74
2017-03-13T08:48:45.007Z,1006.74
2017-03-13T08:49:55.805Z,1006.75
2017-03-13T08:51:06.216Z,1006.77
2017-03-13T08:52:16.623Z,1006.75
2017-03-13T08:53:27.434Z,1006.76
2017-03-13T08:54:38.222Z,1006.77
2017-03-13T08:55:48.626Z,1006.77
2017-03-13T08:56:59.022Z,1006.87
2017-03-13T08:58:09.833Z,1006.8
2017-03-13T08:59:20.645Z,1006.76
2017-03-13T09:00:31.449Z,1006.74
2017-03-13T09:01:42.260Z,1006.78
2017-03-13T09:02:53.060Z,1006.75
2017-03-13T09:04:03.849Z,1006.81
2017-03-13T09:05:13.847Z,1006.81
2017-03-13T09:06:24.641Z,1006.8
2017-03-13T09:07:35.069Z,1006.79
2017-03-13T09:08:45.878Z,1006.81
2017-03-13T09:09:56.682Z,1006.78
2017-03-13T09:11:07.477Z,1006.75
2017-03-13T09:12:17.890Z,1006.77
2017-03-13T09:13:27.887Z,1006.78
2017-03-13T09:14:38.691Z,1006.75
2017-03-13T09:15:49.119Z,1006.71
2017-03-13T09:16:59.924Z,1006.75
2017-03-13T09:18:10.747Z,1006.8
2017-03-13T09:19:20.742Z,1006.8
2017-03-13T09:20:31.556Z,1006.8
2017-03-13T09:21:42.361Z,1006.78
2017-03-13T09:22:53.170Z,1006.75
2017-03-13T09:24:04.002Z,1006.75
2017-03-13T09:25:14.811Z,1006.77
2017-03-13T09:26:25.619Z,1006.82
2017-03-13T09:27:36.020Z,1006.79
2017-03-13T09:28:46.810Z,1006.83
2017-03-13T09:29:57.206Z,1006.78
2017-03-13T09:31:07.643Z,1006.77
2017-03-13T09:32:18.023Z,1006.78
2017-03-13T09:33:28.803Z,1006.75
2017-03-13T09:34:39.584Z,1006.82
2017-03-13T09:35:49.983Z,1006.79
2017-03-13T09:37:00.795Z,1006.76
2017-03-13T09:38:11.585Z,1006.7
2017-03-13T09:39:22.414Z,1006.71
2017-03-13T09:40:33.238Z,1006.73
2017-03-13T09:41:44.022Z,1006.75
2017-03-13T09:42:54.444Z,1006.85
2017-03-13T09:44:04.836Z,1006.82
2017-03-13T09:45:15.613Z,1006.82
2017-03-13T09:46:25.602Z,1006.74
2017-03-13T09:47:36.008Z,1006.8
2017-03-13T09:48:46.797Z,1006.82
2017-03-13T09:49:57.598Z,1006.83
2017-03-13T09:51:07.979Z,1006.8
2017-03-13T09:52:18.373Z,1006.85
2017-03-13T09:53:28.789Z,1006.86
2017-03-13T09:54:39.584Z,1006.93
2017-03-13T09:55:50.391Z,1006.86
2017-03-13T09:57:01.232Z,1006.89
2017-03-13T09:58:12.027Z,1006.89
2017-03-13T09:59:22.859Z,1006.89
2017-03-13T10:00:33.668Z,1006.92
2017-03-13T10:01:44.453Z,1006.98
2017-03-13T10:02:54.861Z,1006.95
2017-03-13T10:04:05.658Z,1007.05
2017-03-13T10:05:15.701Z,1006.98
2017-03-13T10:06:26.501Z,1007.01
2017-03-13T10:07:37.297Z,1006.99
2017-03-13T10:08:48.097Z,1007
2017-03-13T10:09:58.903Z,1006.94
2017-03-13T10:11:09.691Z,1006.94
2017-03-13T10:12:20.136Z,1006.9
2017-03-13T10:13:30.563Z,1006.9
2017-03-13T10:14:41.368Z,1006.96
2017-03-13T10:15:52.191Z,1006.9
2017-03-13T10:17:02.607Z,1006.87
2017-03-13T10:18:12.998Z,1006.82
2017-03-13T10:19:23.420Z,1006.86
2017-03-13T10:20:34.228Z,1006.85
2017-03-13T10:21:44.650Z,1006.9
2017-03-13T10:22:55.434Z,1006.85
2017-03-13T10:24:06.219Z,1006.83
2017-03-13T10:25:17.032Z,1006.85
2017-03-13T10:26:27.816Z,1006.9
2017-03-13T10:27:38.627Z,1006.89
2017-03-13T10:28:49.430Z,1006.81
2017-03-13T10:30:00.250Z,1006.88
2017-03-13T10:31:10.647Z,1006.92
2017-03-13T10:32:21.434Z,1006.87
2017-03-13T10:33:31.457Z,1006.91
2017-03-13T10:34:41.867Z,1006.92
2017-03-13T10:35:52.673Z,1006.91
2017-03-13T10:37:03.080Z,1006.91
2017-03-13T10:38:13.944Z,1006.95
2017-03-13T10:39:24.753Z,1006.96
2017-03-13T10:40:35.550Z,1006.94
2017-03-13T10:41:46.335Z,1006.84
2017-03-13T10:42:56.755Z,1006.85
2017-03-13T10:44:07.568Z,1006.91
2017-03-13T10:45:18.404Z,1006.91
2017-03-13T10:46:29.250Z,1006.86
2017-03-13T10:47:40.072Z,1006.87
2017-03-13T10:48:50.873Z,1006.84
2017-03-13T10:50:01.657Z,1006.9
2017-03-13T10:51:12.474Z,1006.84
2017-03-13T10:52:23.320Z,1006.91
2017-03-13T10:53:33.712Z,1006.87
2017-03-13T10:54:44.557Z,1006.88
2017-03-13T10:55:55.948Z,1006.82
2017-03-13T10:57:06.763Z,1006.8
2017-03-13T10:58:17.578Z,1006.83
2017-03-13T10:59:27.991Z,1006.82
2017-03-13T11:00:38.790Z,1006.79
2017-03-13T11:01:49.188Z,1006.83
2017-03-13T11:03:00.009Z,1006.73
2017-03-13T11:04:10.848Z,1006.78
2017-03-13T11:05:21.663Z,1006.81
2017-03-13T11:06:32.520Z,1006.74
2017-03-13T11:07:43.338Z,1006.75
2017-03-13T11:08:54.129Z,1006.75
2017-03-13T11:10:04.932Z,1006.76
2017-03-13T11:11:15.758Z,1006.74
2017-03-13T11:12:26.195Z,1006.75
2017-03-13T11:13:36.609Z,1006.79
2017-03-13T11:14:47.416Z,1006.87
2017-03-13T11:15:57.859Z,1006.79
2017-03-13T11:17:08.673Z,1006.77
2017-03-13T11:18:19.533Z,1006.83
2017-03-13T11:19:30.345Z,1006.8
2017-03-13T11:20:41.185Z,1006.81
2017-03-13T11:21:51.604Z,1006.81
2017-03-13T11:23:02.433Z,1006.81
2017-03-13T11:24:13.256Z,1006.79
2017-03-13T11:25:24.137Z,1006.76
2017-03-13T11:26:34.562Z,1006.7
2017-03-13T11:27:44.561Z,1006.73
2017-03-13T11:28:55.365Z,1006.77
2017-03-13T11:30:06.179Z,1006.75
2017-03-13T11:31:16.991Z,1006.65
2017-03-13T11:32:27.782Z,1006.65
2017-03-13T11:33:38.602Z,1006.7
2017-03-13T11:34:49.053Z,1006.66
2017-03-13T11:35:59.744Z,1006.65
2017-03-13T11:37:10.553Z,1006.63
2017-03-13T11:38:21.368Z,1006.6
2017-03-13T11:39:31.384Z,1006.56
2017-03-13T11:40:42.185Z,1006.56
2017-03-13T11:41:52.984Z,1006.5
2017-03-13T11:43:03.822Z,1006.47
2017-03-13T11:44:14.447Z,1006.46
2017-03-13T11:45:25.270Z,1006.51
2017-03-13T11:46:36.069Z,1006.52
2017-03-13T11:47:46.480Z,1006.53
2017-03-13T11:48:56.898Z,1006.48
2017-03-13T11:50:07.322Z,1006.46
2017-03-13T11:51:17.331Z,1006.46
2017-03-13T11:52:28.159Z,1006.47
2017-03-13T11:53:38.562Z,1006.47
2017-03-13T11:54:49.357Z,1006.51
2017-03-13T11:56:00.177Z,1006.48
2017-03-13T11:57:11.004Z,1006.54
2017-03-13T11:58:21.426Z,1006.46
2017-03-13T11:59:32.250Z,1006.48
2017-03-13T12:00:42.664Z,1006.46
2017-03-13T12:01:53.074Z,1006.52
2017-03-13T12:03:03.869Z,1006.43
2017-03-13T12:04:14.675Z,1006.47
2017-03-13T12:05:25.102Z,1006.46
2017-03-13T12:06:35.542Z,1006.4
2017-03-13T12:07:46.342Z,1006.45
2017-03-13T12:08:57.144Z,1006.43
2017-03-13T12:10:07.546Z,1006.45
2017-03-13T12:11:18.385Z,1006.45
2017-03-13T12:12:29.189Z,1006.44
2017-03-13T12:13:39.995Z,1006.38
2017-03-13T12:14:50.399Z,1006.46
2017-03-13T12:16:01.207Z,1006.38
2017-03-13T12:17:12.002Z,1006.37
2017-03-13T12:18:22.037Z,1006.36
2017-03-13T12:19:32.828Z,1006.32
2017-03-13T12:20:43.634Z,1006.26
2017-03-13T12:21:54.666Z,1006.36
2017-03-13T12:23:05.076Z,1006.25
2017-03-13T12:24:15.913Z,1006.25
2017-03-13T12:25:26.699Z,1006.2
2017-03-13T12:26:36.720Z,1006.22
2017-03-13T12:27:46.729Z,1006.17
2017-03-13T12:28:56.765Z,1006.24
2017-03-13T12:30:07.180Z,1006.17
2017-03-13T12:31:17.989Z,1006.2
2017-03-13T12:32:28.801Z,1006.17
2017-03-13T12:33:39.222Z,1006.23
2017-03-13T12:34:50.014Z,1006.16
2017-03-13T12:36:00.828Z,1006.21
2017-03-13T12:37:11.242Z,1006.16
2017-03-13T12:38:22.034Z,1006.13
2017-03-13T12:39:32.874Z,1006.08
2017-03-13T12:40:43.686Z,1006.13
2017-03-13T12:41:54.119Z,1006.17
2017-03-13T12:43:04.914Z,1006.15
2017-03-13T12:44:15.331Z,1006.12
2017-03-13T12:45:26.235Z,1006.07
2017-03-13T12:46:37.172Z,1006.14
2017-03-13T12:47:47.582Z,1006.1
2017-03-13T12:48:58.372Z,1006.13
2017-03-13T12:50:08.777Z,1006.08
2017-03-13T12:51:19.176Z,1006.06
2017-03-13T12:55:18.590Z,1006.11
2017-03-13T12:56:29.386Z,1006.11
2017-03-13T12:57:39.412Z,1006.09
2017-03-13T12:58:50.198Z,1006.14
2017-03-13T13:01:11.911Z,1006.2
2017-03-13T13:02:22.284Z,1006.18
2017-03-13T13:03:32.658Z,1006.11
2017-03-13T13:04:43.447Z,1006.14
2017-03-13T13:05:54.246Z,1006.13
2017-03-13T13:07:05.048Z,1006.09
2017-03-13T13:08:15.811Z,1006.07
2017-03-13T13:09:26.603Z,1006.03
2017-03-13T13:10:37.370Z,1006.08
2017-03-13T13:11:48.105Z,1006.08
2017-03-13T13:12:58.867Z,1006.07
2017-03-13T13:14:09.628Z,1006.11
2017-03-13T13:15:20.389Z,1006.12
2017-03-13T13:16:31.151Z,1006.09
2017-03-13T13:17:41.164Z,1006.02
2017-03-13T13:18:52.157Z,1006.08
2017-03-13T13:20:02.140Z,1006.02
2017-03-13T13:21:12.509Z,1006.09
2017-03-13T13:22:23.285Z,1006.02
2017-03-13T13:23:33.657Z,1006.08
2017-03-13T13:24:44.410Z,1006.05
2017-03-13T13:25:55.181Z,1006
2017-03-13T13:27:05.935Z,1005.95
2017-03-13T13:28:16.701Z,1005.98
2017-03-13T13:29:27.468Z,1005.96
2017-03-13T13:30:37.850Z,1005.91
2017-03-13T13:31:48.611Z,1005.89
2017-03-13T13:32:59.379Z,1005.88
2017-03-13T13:34:10.145Z,1005.89
2017-03-13T13:35:20.119Z,1005.9
2017-03-13T13:36:30.887Z,1005.91
2017-03-13T13:37:41.258Z,1005.87
2017-03-13T13:38:52.024Z,1005.85
2017-03-13T13:40:02.792Z,1005.81
2017-03-13T13:41:13.561Z,1005.83
2017-03-13T13:42:24.383Z,1005.79
2017-03-13T13:43:35.144Z,1005.74
2017-03-13T13:44:45.922Z,1005.76
2017-03-13T13:45:56.280Z,1005.73
2017-03-13T13:47:06.666Z,1005.77
2017-03-13T13:48:17.450Z,1005.77
2017-03-13T13:49:27.818Z,1005.76
2017-03-13T13:50:38.195Z,1005.75
2017-03-13T13:51:48.949Z,1005.81
2017-03-13T13:52:59.724Z,1005.81
2017-03-13T13:54:10.507Z,1005.81
2017-03-13T13:55:21.297Z,1005.8
2017-03-13T13:56:32.063Z,1005.78
2017-03-13T13:57:42.041Z,1005.78
2017-03-13T13:58:52.809Z,1005.8
2017-03-13T14:00:03.582Z,1005.83
2017-03-13T14:01:13.982Z,1005.79
2017-03-13T14:02:24.758Z,1005.74
2017-03-13T14:03:35.533Z,1005.76
2017-03-13T14:04:46.277Z,1005.79
2017-03-13T14:05:57.027Z,1005.75
2017-03-13T14:07:07.439Z,1005.73
2017-03-13T14:08:17.816Z,1005.69
2017-03-13T14:09:28.581Z,1005.66
2017-03-13T14:10:39.367Z,1005.61
2017-03-13T14:11:50.141Z,1005.64
2017-03-13T14:13:00.916Z,1005.55
2017-03-13T14:14:11.697Z,1005.62
2017-03-13T14:15:22.517Z,1005.67
2017-03-13T14:16:33.361Z,1005.6
2017-03-13T14:17:43.761Z,1005.54
2017-03-13T14:18:54.165Z,1005.69
2017-03-13T14:20:04.976Z,1005.62
2017-03-13T14:21:15.770Z,1005.62
2017-03-13T14:22:26.521Z,1005.59
2017-03-13T14:23:37.293Z,1005.6
2017-03-13T14:24:48.057Z,1005.56
2017-03-13T14:25:58.853Z,1005.62
2017-03-13T14:27:09.637Z,1005.52
2017-03-13T14:28:20.005Z,1005.55
2017-03-13T14:29:30.396Z,1005.52
2017-03-13T14:30:41.175Z,1005.51
2017-03-13T14:31:51.958Z,1005.5
2017-03-13T14:33:02.725Z,1005.52
2017-03-13T14:34:12.699Z,1005.55
2017-03-13T14:35:23.094Z,1005.52
2017-03-13T14:36:33.858Z,1005.53
2017-03-13T14:37:44.233Z,1005.61
2017-03-13T14:38:55.008Z,1005.56
2017-03-13T14:40:05.792Z,1005.56
2017-03-13T14:41:16.174Z,1005.62
2017-03-13T14:42:26.934Z,1005.56
2017-03-13T14:43:37.929Z,1005.57
2017-03-13T14:44:48.730Z,1005.61
2017-03-13T14:45:59.097Z,1005.58
2017-03-13T14:47:09.852Z,1005.57
2017-03-13T14:48:20.278Z,1005.58
2017-03-13T14:49:30.652Z,1005.54
2017-03-13T14:50:41.405Z,1005.51
2017-03-13T14:51:52.193Z,1005.53
2017-03-13T14:53:02.591Z,1005.52